Time;durP1;ratioP1;P1;durP2;ratioP2;P2;SDS_P1;SDS_P2;PMS_P1;PMS_P2;Temp;Humidity;BMP_temperature;BMP_pressure;BME280_temperature;BME280_humidity;BME280_pressure;Samples;Min_cycle;Max_cycle;Signal;HPM_P1;HPM_P2
2023/01/07 00:01:13;;;;;;;21.15;13.65;;;;;;;8.56;100.00;101575.56;5011181;28;20060;-75
2023/01/07 00:03:39;;;;;;;24.88;15.65;;;;;;;8.52;100.00;101559.38;5009631;28;20593;-75
2023/01/07 00:06:14;;;;;;;25.70;15.38;;;;;;;8.53;100.00;101562.78;5016142;28;20385;-75
2023/01/07 00:08:41;;;;;;;26.80;15.93;;;;;;;8.58;100.00;101558.94;5010639;28;20105;-75
2023/01/07 00:11:22;;;;;;;24.27;16.70;;;;;;;8.60;100.00;101553.66;5008689;28;20058;-75
2023/01/07 00:13:49;;;;;;;26.80;17.40;;;;;;;8.60;100.00;101554.47;5006325;28;20069;-74
2023/01/07 00:16:18;;;;;;;30.38;18.15;;;;;;;8.63;100.00;101563.84;5011400;28;20366;-75
2023/01/07 00:18:48;;;;;;;24.27;15.95;;;;;;;8.63;100.00;101563.84;5017079;28;20359;-75
2023/01/07 00:21:20;;;;;;;26.20;16.95;;;;;;;8.61;100.00;101561.34;5015221;28;20077;-75
2023/01/07 00:23:47;;;;;;;30.25;17.50;;;;;;;8.62;100.00;101562.16;5011558;28;20034;-75
2023/01/07 00:26:17;;;;;;;26.08;16.80;;;;;;;8.60;100.00;101557.06;4997297;28;20398;-75
2023/01/07 00:28:45;;;;;;;27.00;16.63;;;;;;;8.61;100.00;101555.31;5014481;28;20501;-75
2023/01/07 00:31:11;;;;;;;29.15;16.92;;;;;;;8.60;100.00;101564.03;5014374;28;20041;-75
2023/01/07 00:33:50;;;;;;;25.33;16.30;;;;;;;8.58;100.00;101558.94;5010248;28;20034;-75
2023/01/07 00:36:16;;;;;;;26.65;16.30;;;;;;;8.61;100.00;101557.91;5008698;28;20327;-74
2023/01/07 00:39:00;;;;;;;23.15;16.27;;;;;;;8.59;100.00;101552.00;5003307;28;20041;-75
2023/01/07 00:41:27;;;;;;;28.83;17.83;;;;;;;8.59;100.00;101559.78;5016937;28;20041;-75
2023/01/07 00:47:08;;;;;;;29.58;18.13;;;;;;;8.58;100.00;101556.34;5007542;28;20048;-75
2023/01/07 00:49:34;;;;;;;24.92;16.63;;;;;;;8.60;100.00;101557.06;5007900;28;20038;-75
2023/01/07 00:51:59;;;;;;;27.27;16.23;;;;;;;8.63;100.00;101554.28;5010035;28;20470;-74
2023/01/07 00:54:24;;;;;;;29.08;16.35;;;;;;;8.66;100.00;101558.44;5008934;28;20548;-75
2023/01/07 00:56:50;;;;;;;31.45;16.63;;;;;;;8.66;100.00;101558.44;5011882;28;20033;-75
2023/01/07 00:59:15;;;;;;;26.90;17.48;;;;;;;8.63;100.00;101554.28;5013078;28;20158;-75
2023/01/07 01:01:41;;;;;;;29.02;18.17;;;;;;;8.62;100.00;101556.97;5007017;28;20038;-74
2023/01/07 01:04:07;;;;;;;25.20;16.20;;;;;;;8.63;100.00;101553.44;5007040;28;20041;-75
2023/01/07 01:06:32;;;;;;;27.15;18.58;;;;;;;8.65;100.00;101559.38;5013531;28;20034;-75
2023/01/07 01:08:57;;;;;;;26.83;16.27;;;;;;;8.66;100.00;101558.44;5010134;28;20061;-75
2023/01/07 01:11:23;;;;;;;25.15;15.48;;;;;;;8.67;100.00;101565.28;5011615;28;20342;-75
2023/01/07 01:13:48;;;;;;;22.90;14.70;;;;;;;8.65;100.00;101560.19;5013687;28;20115;-75
2023/01/07 01:16:16;;;;;;;21.55;14.45;;;;;;;8.66;100.00;101563.63;5011291;28;20035;-75
2023/01/07 01:18:43;;;;;;;22.92;13.80;;;;;;;8.64;100.00;101561.13;5005145;28;20090;-75
2023/01/07 01:21:13;;;;;;;21.63;14.32;;;;;;;8.67;100.00;101564.44;5019479;28;20105;-75
2023/01/07 01:23:39;;;;;;;20.30;13.50;;;;;;;8.65;100.00;101568.00;5015179;28;20030;-75
2023/01/07 01:26:07;;;;;;;19.88;14.48;;;;;;;8.62;100.00;101564.78;5026819;28;20030;-75
2023/01/07 01:28:33;;;;;;;24.73;14.43;;;;;;;8.61;100.00;101561.34;5013996;28;20078;-75
2023/01/07 01:30:58;;;;;;;18.27;12.35;;;;;;;8.58;100.00;101561.53;5006374;28;20049;-75
2023/01/07 01:33:24;;;;;;;20.45;12.75;;;;;;;8.56;100.00;101555.63;5009189;28;20393;-75
2023/01/07 01:35:49;;;;;;;16.63;12.18;;;;;;;8.57;100.00;101559.06;5011621;28;20057;-75
2023/01/07 01:38:15;;;;;;;19.95;12.32;;;;;;;8.58;100.00;101555.53;5013251;28;20037;-75
2023/01/07 01:40:40;;;;;;;20.63;12.68;;;;;;;8.59;100.00;101558.00;5007060;28;20033;-75
2023/01/07 01:43:24;;;;;;;23.05;12.13;;;;;;;8.57;100.00;101566.84;5014029;28;20029;-75
2023/01/07 01:45:49;;;;;;;18.02;12.02;;;;;;;8.56;100.00;101560.81;5003740;28;20034;-75
2023/01/07 01:48:15;;;;;;;17.27;10.88;;;;;;;8.54;100.00;101556.66;5009512;28;20042;-75
2023/01/07 01:50:44;;;;;;;17.83;10.35;;;;;;;8.53;100.00;101557.59;5010325;28;20026;-74
2023/01/07 01:53:21;;;;;;;17.70;10.15;;;;;;;8.52;100.00;101551.56;5014156;28;20465;-75
2023/01/07 01:55:52;;;;;;;14.38;9.35;;;;;;;8.51;100.00;101560.31;5007823;28;20026;-75
2023/01/07 01:58:23;;;;;;;18.38;10.77;;;;;;;8.51;100.00;101555.09;5012211;28;20030;-75
2023/01/07 02:00:49;;;;;;;16.63;9.90;;;;;;;8.49;100.00;101549.22;5008547;28;20037;-75
2023/01/07 02:03:20;;;;;;;13.95;9.27;;;;;;;8.47;100.00;101547.66;5015061;28;20434;-75
2023/01/07 02:05:46;;;;;;;14.52;8.82;;;;;;;8.48;100.00;101542.34;5002132;28;20470;-75
2023/01/07 02:08:13;;;;;;;16.52;9.88;;;;;;;8.47;100.00;101543.28;5013266;28;20034;-75
2023/01/07 02:10:39;;;;;;;17.52;9.13;;;;;;;8.46;100.00;101540.78;5004071;28;20032;-75
2023/01/07 02:13:33;;;;;;;16.92;9.05;;;;;;;8.42;100.00;101539.34;5011481;28;20033;-75
2023/01/07 02:16:36;;;;;;;19.88;10.07;;;;;;;8.43;100.00;101538.41;5005997;28;20036;-75
2023/01/07 02:19:35;;;;;;;17.98;8.60;;;;;;;8.43;100.00;101535.81;5004233;28;20136;-75
2023/01/07 02:22:19;;;;;;;12.88;8.43;;;;;;;8.41;100.00;101537.69;5001084;28;20214;-75
2023/01/07 02:25:06;;;;;;;14.55;8.40;;;;;;;8.42;100.00;101524.59;5008195;28;20092;-75
2023/01/07 02:27:49;;;;;;;19.83;8.10;;;;;;;8.41;100.00;101524.69;5005216;28;20525;-75
2023/01/07 02:30:20;;;;;;;13.48;7.53;;;;;;;8.43;100.00;101526.25;5002062;28;20073;-75
2023/01/07 02:33:04;;;;;;;17.75;8.98;;;;;;;8.46;100.00;101536.44;5001306;28;20393;-75
2023/01/07 02:35:36;;;;;;;13.77;8.38;;;;;;;8.46;100.00;101526.03;5000188;28;20811;-75
2023/01/07 02:38:04;;;;;;;15.05;8.68;;;;;;;8.49;100.00;101525.00;5009126;28;20523;-75
2023/01/07 02:40:57;;;;;;;13.48;7.65;;;;;;;8.46;100.00;101527.81;5005937;28;20056;-75
2023/01/07 02:43:28;;;;;;;13.98;8.32;;;;;;;8.47;100.00;101524.28;5009914;28;20050;-75
2023/01/07 02:46:17;;;;;;;18.15;8.80;;;;;;;8.44;100.00;101521.91;5002042;28;20038;-75
2023/01/07 02:48:44;;;;;;;12.43;7.80;;;;;;;8.45;100.00;101519.19;5003240;28;20092;-75
2023/01/07 02:51:10;;;;;;;15.45;8.57;;;;;;;8.47;100.00;101514.72;5000401;28;20042;-74
2023/01/07 02:53:35;;;;;;;15.70;8.20;;;;;;;8.48;100.00;101513.78;5002374;28;20052;-75
2023/01/07 02:56:23;;;;;;;15.30;8.20;;;;;;;8.50;100.00;101511.09;5009238;28;20037;-75
2023/01/07 02:59:27;;;;;;;14.43;8.25;;;;;;;8.49;100.00;101510.25;5009293;28;20056;-74
2023/01/07 03:02:27;;;;;;;17.67;8.45;;;;;;;8.50;100.00;101516.28;5011231;28;20049;-75
2023/01/07 03:05:25;;;;;;;18.52;8.88;;;;;;;8.46;100.00;101507.03;5005837;28;20048;-75
2023/01/07 03:08:22;;;;;;;17.35;8.50;;;;;;;8.46;100.00;101509.63;5001056;28;20045;-75
2023/01/07 03:10:58;;;;;;;22.27;10.02;;;;;;;8.43;100.00;101512.44;5001953;28;20058;-74
2023/01/07 03:13:31;;;;;;;15.88;8.40;;;;;;;8.45;100.00;101507.97;5007590;28;20441;-75
2023/01/07 03:16:07;;;;;;;16.30;9.85;;;;;;;8.47;100.00;101506.09;5017117;28;20056;-74
2023/01/07 03:18:42;;;;;;;19.00;9.30;;;;;;;8.51;100.00;101507.53;5005038;28;20038;-75
2023/01/07 03:21:13;;;;;;;15.50;9.00;;;;;;;8.54;100.00;101502.13;5016171;28;20473;-75
2023/01/07 03:23:47;;;;;;;15.18;8.40;;;;;;;8.56;100.00;101508.03;5013268;28;20575;-75
2023/01/07 03:26:19;;;;;;;18.77;10.20;;;;;;;8.51;100.00;101504.94;5012728;28;20432;-75
2023/01/07 03:28:46;;;;;;;15.73;8.68;;;;;;;8.51;100.00;101507.53;5012964;28;20030;-75
2023/01/07 03:31:14;;;;;;;16.17;9.48;;;;;;;8.54;100.00;101507.31;5017470;28;20030;-75
2023/01/07 03:33:39;;;;;;;15.80;8.73;;;;;;;8.55;100.00;101503.78;5012379;28;20038;-75
2023/01/07 03:36:09;;;;;;;17.08;9.35;;;;;;;8.53;100.00;101500.44;5010335;28;20036;-75
2023/01/07 03:38:36;;;;;;;16.60;8.40;;;;;;;8.52;100.00;101502.22;5017233;28;20053;-75
2023/01/07 03:41:02;;;;;;;16.17;8.63;;;;;;;8.51;100.00;101497.97;5014689;28;20029;-75
2023/01/07 03:43:27;;;;;;;18.85;9.25;;;;;;;8.51;100.00;101502.31;5011616;28;20500;-75
2023/01/07 03:45:56;;;;;;;14.70;8.57;;;;;;;8.50;100.00;101495.50;5016012;28;20030;-75
2023/01/07 03:48:21;;;;;;;13.85;8.93;;;;;;;8.49;100.00;101499.03;5015660;28;20029;-75
2023/01/07 03:50:47;;;;;;;14.32;8.25;;;;;;;8.45;100.00;101498.41;5020081;28;20068;-75
2023/01/07 03:53:12;;;;;;;16.10;8.68;;;;;;;8.45;100.00;101495.81;5011333;28;20033;-75
2023/01/07 03:55:37;;;;;;;12.35;8.15;;;;;;;8.45;100.00;101492.38;5013742;28;20316;-74
2023/01/07 03:58:03;;;;;;;15.10;8.88;;;;;;;8.45;100.00;101490.63;5013376;28;20048;-76
2023/01/07 04:00:28;;;;;;;16.98;8.93;;;;;;;8.45;100.00;101492.38;5011271;28;20050;-75
2023/01/07 04:02:54;;;;;;;15.80;8.90;;;;;;;8.46;100.00;101492.28;5010705;28;20040;-75
2023/01/07 04:05:19;;;;;;;15.20;8.93;;;;;;;8.42;100.00;101492.59;5013986;28;20117;-75
2023/01/07 04:07:45;;;;;;;14.30;8.85;;;;;;;8.44;100.00;101488.13;5013129;28;20033;-75
2023/01/07 04:10:10;;;;;;;17.98;9.73;;;;;;;8.43;100.00;101482.09;5014303;28;20054;-75
2023/01/07 04:12:36;;;;;;;18.83;9.32;;;;;;;8.44;100.00;101490.72;5006345;28;20111;-75
2023/01/07 04:15:02;;;;;;;19.70;8.93;;;;;;;8.45;100.00;101482.00;5013027;28;20439;-75
2023/01/07 04:17:27;;;;;;;12.98;8.70;;;;;;;8.45;100.00;101480.22;5014905;28;20029;-75
2023/01/07 04:19:53;;;;;;;12.95;8.38;;;;;;;8.44;100.00;101482.94;5014886;28;20091;-75
2023/01/07 04:22:18;;;;;;;12.05;7.97;;;;;;;8.44;100.00;101483.75;5011226;28;20116;-75
2023/01/07 04:24:44;;;;;;;17.60;9.05;;;;;;;8.45;100.00;101482.00;5010583;28;20543;-75
2023/01/07 04:27:09;;;;;;;16.65;9.00;;;;;;;8.42;100.00;101482.22;5014726;28;20030;-75
2023/01/07 04:29:35;;;;;;;17.33;9.18;;;;;;;8.43;100.00;101484.69;5011252;28;20037;-75
2023/01/07 04:32:00;;;;;;;19.98;9.52;;;;;;;8.44;100.00;101483.75;5010032;28;20029;-75
2023/01/07 04:34:26;;;;;;;19.08;9.63;;;;;;;8.48;100.00;101486.97;5012679;28;20030;-75
2023/01/07 04:36:51;;;;;;;19.20;9.50;;;;;;;8.49;100.00;101489.47;5010360;28;20022;-75
2023/01/07 04:39:17;;;;;;;21.75;9.95;;;;;;;8.50;100.00;101485.13;5014174;28;20029;-75
2023/01/07 04:41:44;;;;;;;16.60;10.02;;;;;;;8.48;100.00;101484.38;5015639;28;20470;-75
2023/01/07 04:44:10;;;;;;;15.32;8.88;;;;;;;8.46;100.00;101483.66;5017509;28;20085;-75
2023/01/07 04:46:35;;;;;;;17.70;9.18;;;;;;;8.46;100.00;101481.91;5007795;28;20121;-75
2023/01/07 04:49:01;;;;;;;19.20;9.02;;;;;;;8.50;100.00;101469.53;5010652;28;20470;-76
2023/01/07 04:51:26;;;;;;;18.50;9.32;;;;;;;8.53;100.00;101484.88;5017821;28;20206;-76
2023/01/07 04:53:51;;;;;;;20.30;8.90;;;;;;;8.48;100.00;101481.78;5014700;28;20115;-75
2023/01/07 04:56:17;;;;;;;14.77;8.73;;;;;;;8.45;100.00;101477.63;5013820;28;20048;-75
2023/01/07 04:58:42;;;;;;;17.30;9.07;;;;;;;8.44;100.00;101475.97;5013042;28;20486;-75
2023/01/07 05:01:08;;;;;;;15.27;9.27;;;;;;;8.45;100.00;101472.44;5015370;28;20080;-75
2023/01/07 05:03:34;;;;;;;18.02;9.70;;;;;;;8.46;100.00;101481.91;5009268;28;20045;-75
2023/01/07 05:05:59;;;;;;;17.60;9.93;;;;;;;8.46;100.00;101478.47;5012694;28;20034;-75
2023/01/07 05:08:26;;;;;;;16.55;9.52;;;;;;;8.48;100.00;101492.19;5013119;28;20018;-74
2023/01/07 05:10:51;;;;;;;18.83;9.88;;;;;;;8.49;100.00;101488.66;5004212;28;20045;-75
2023/01/07 05:13:19;;;;;;;17.15;8.82;;;;;;;8.52;100.00;101478.00;5012116;28;20481;-75
2023/01/07 05:15:45;;;;;;;15.60;9.00;;;;;;;8.55;100.00;101483.00;5008377;28;20032;-74
2023/01/07 05:18:11;;;;;;;15.25;8.68;;;;;;;8.55;100.00;101481.22;5013884;28;20034;-74
2023/01/07 05:20:37;;;;;;;19.00;9.65;;;;;;;8.56;100.00;101482.06;5014407;28;20473;-75
2023/01/07 05:23:04;;;;;;;19.88;9.57;;;;;;;8.55;100.00;101483.81;5004492;28;20049;-75
2023/01/07 05:25:30;;;;;;;19.13;10.20;;;;;;;8.55;100.00;101483.81;5004194;28;20042;-75
2023/01/07 05:27:55;;;;;;;18.08;9.30;;;;;;;8.57;100.00;101481.13;5009598;28;20025;-75
2023/01/07 05:30:21;;;;;;;16.52;9.05;;;;;;;8.57;100.00;101487.16;5009865;28;20084;-75
2023/01/07 05:32:46;;;;;;;14.85;8.15;;;;;;;8.61;100.00;101482.56;5006955;28;20029;-74
2023/01/07 05:35:12;;;;;;;16.70;9.13;;;;;;;8.60;100.00;101486.09;5010152;28;20470;-75
2023/01/07 05:37:37;;;;;;;12.65;7.75;;;;;;;8.60;100.00;101491.31;5005631;28;20786;-75
2023/01/07 05:40:03;;;;;;;16.75;8.68;;;;;;;8.60;100.00;101486.94;5004192;28;20044;-75
2023/01/07 05:42:29;;;;;;;16.45;8.10;;;;;;;8.60;100.00;101493.91;5011160;28;20574;-75
2023/01/07 05:44:55;;;;;;;13.68;8.20;;;;;;;8.59;100.00;101494.84;5011201;28;20168;-75
2023/01/07 05:47:21;;;;;;;13.88;8.18;;;;;;;8.57;100.00;101486.31;5011834;28;20138;-75
2023/01/07 05:49:47;;;;;;;14.35;8.68;;;;;;;8.53;100.00;101485.69;5012329;28;20041;-75
2023/01/07 05:52:13;;;;;;;14.50;8.30;;;;;;;8.52;100.00;101493.59;5010348;28;20029;-75
2023/01/07 05:54:38;;;;;;;17.27;8.82;;;;;;;8.53;100.00;101497.84;5010370;28;20029;-75
2023/01/07 05:57:04;;;;;;;14.50;8.85;;;;;;;8.51;100.00;101495.38;5008781;28;20037;-76
2023/01/07 05:59:33;;;;;;;15.43;8.30;;;;;;;8.51;100.00;101494.53;5008034;28;20664;-76
2023/01/07 06:01:59;;;;;;;17.15;8.98;;;;;;;8.49;100.00;101494.66;5011871;28;20474;-75
2023/01/07 06:04:24;;;;;;;16.52;8.30;;;;;;;8.44;100.00;101494.16;5012154;28;20078;-75
2023/01/07 06:06:50;;;;;;;15.15;8.73;;;;;;;8.39;100.00;101493.63;5015449;28;20026;-75
2023/01/07 06:09:15;;;;;;;14.48;8.10;;;;;;;8.40;100.00;101495.31;5011445;28;20029;-75
2023/01/07 06:11:40;;;;;;;15.73;8.25;;;;;;;8.39;100.00;101492.81;5021642;28;20030;-75
2023/01/07 06:14:06;;;;;;;14.88;8.00;;;;;;;8.39;100.00;101504.03;4999231;28;20037;-75
2023/01/07 06:16:32;;;;;;;17.15;7.88;;;;;;;8.42;100.00;101502.97;4997953;28;20442;-75
2023/01/07 06:18:57;;;;;;;17.95;7.90;;;;;;;8.46;100.00;101504.44;4999569;28;20038;-75
2023/01/07 06:21:23;;;;;;;12.93;8.43;;;;;;;8.48;100.00;101508.59;4999856;28;20103;-75
2023/01/07 06:23:48;;;;;;;18.85;10.40;;;;;;;8.52;100.00;101504.00;5010299;28;20492;-75
2023/01/07 06:26:13;;;;;;;15.95;10.27;;;;;;;8.53;100.00;101511.66;4999925;28;20060;-75
2023/01/07 06:28:39;;;;;;;16.63;9.60;;;;;;;8.53;100.00;101503.88;5003439;28;20764;-75
2023/01/07 06:31:04;;;;;;;18.95;9.80;;;;;;;8.54;100.00;101508.13;5001168;28;20061;-75
2023/01/07 06:33:30;;;;;;;17.20;10.18;;;;;;;8.55;100.00;101508.97;5001025;28;20072;-75
2023/01/07 06:35:55;;;;;;;16.45;9.23;;;;;;;8.55;100.00;101509.81;5005611;28;20424;-75
2023/01/07 06:38:21;;;;;;;14.15;8.13;;;;;;;8.55;100.00;101508.97;5012330;28;20052;-75
2023/01/07 06:40:46;;;;;;;13.18;7.22;;;;;;;8.52;100.00;101509.19;5010376;28;20032;-74
2023/01/07 06:43:12;;;;;;;12.57;7.38;;;;;;;8.51;100.00;101510.13;5011700;28;20049;-76
2023/01/07 06:45:37;;;;;;;20.58;8.80;;;;;;;8.51;100.00;101510.13;5012501;28;20375;-76
2023/01/07 06:48:03;;;;;;;12.30;7.28;;;;;;;8.51;100.00;101510.13;5013575;28;20061;-76
2023/01/07 06:50:28;;;;;;;17.63;9.13;;;;;;;8.52;100.00;101509.19;5011010;28;20026;-75
2023/01/07 06:52:55;;;;;;;15.55;8.02;;;;;;;8.52;100.00;101514.38;5011858;28;20038;-76
2023/01/07 06:55:23;;;;;;;11.05;7.85;;;;;;;8.52;100.00;101504.81;5002277;28;20042;-76
2023/01/07 06:57:49;;;;;;;15.45;8.50;;;;;;;8.50;100.00;101514.50;5035555;28;20046;-73
2023/01/07 07:00:15;;;;;;;15.38;8.02;;;;;;;8.46;100.00;101507.88;5013531;28;20052;-76
2023/01/07 07:02:41;;;;;;;20.10;7.57;;;;;;;8.43;100.00;101515.88;5006893;28;20037;-76
2023/01/07 07:05:07;;;;;;;15.80;8.52;;;;;;;8.45;100.00;101516.59;5007527;28;20380;-75
2023/01/07 07:07:33;;;;;;;17.08;8.98;;;;;;;8.42;100.00;101519.41;4999291;28;20038;-76
2023/01/07 07:09:58;;;;;;;15.48;8.57;;;;;;;8.43;100.00;101512.44;5011723;28;20050;-76
2023/01/07 07:12:23;;;;;;;14.50;9.18;;;;;;;8.45;100.00;101520.97;5009118;28;20030;-75
2023/01/07 07:14:50;;;;;;;15.13;8.52;;;;;;;8.50;100.00;101518.88;5012042;28;20021;-75
2023/01/07 07:17:15;;;;;;;14.30;7.68;;;;;;;8.53;100.00;101516.88;4999426;28;20053;-75
2023/01/07 07:19:41;;;;;;;17.20;7.95;;;;;;;8.56;100.00;101528.81;5000241;28;20060;-75
2023/01/07 07:22:06;;;;;;;11.82;7.70;;;;;;;8.55;100.00;101530.59;5002246;28;20014;-75
2023/01/07 07:24:32;;;;;;;16.15;7.78;;;;;;;8.56;100.00;101527.06;5003833;28;20038;-75
2023/01/07 07:26:58;;;;;;;21.20;9.00;;;;;;;8.54;100.00;101528.91;5004304;28;20482;-74
2023/01/07 07:29:24;;;;;;;13.73;7.65;;;;;;;8.55;100.00;101527.97;5003093;28;20037;-74
2023/01/07 07:31:49;;;;;;;16.67;7.65;;;;;;;8.56;100.00;101528.81;4992861;28;20037;-74
2023/01/07 07:34:17;;;;;;;13.00;7.28;;;;;;;8.55;100.00;101534.94;4983893;28;20478;-74
2023/01/07 07:36:43;;;;;;;16.33;7.05;;;;;;;8.53;100.00;101531.63;4983220;28;20033;-74
2023/01/07 07:39:10;;;;;;;18.67;9.20;;;;;;;8.53;100.00;101526.44;4990181;28;20033;-73
2023/01/07 07:41:35;;;;;;;13.50;7.97;;;;;;;8.53;100.00;101536.81;5017181;28;20857;-73
2023/01/07 07:44:01;;;;;;;15.07;8.18;;;;;;;8.49;100.00;101528.44;5014987;28;20049;-73
2023/01/07 07:46:26;;;;;;;14.85;8.13;;;;;;;8.50;100.00;101534.47;5008177;28;20430;-74
2023/01/07 07:48:52;;;;;;;16.90;8.32;;;;;;;8.51;100.00;101530.91;5052539;28;20034;-73
2023/01/07 07:51:17;;;;;;;14.75;8.73;;;;;;;8.51;100.00;101539.53;5013072;28;20044;-73
2023/01/07 07:53:42;;;;;;;18.33;7.93;;;;;;;8.54;100.00;101535.88;5013167;28;20034;-73
2023/01/07 07:56:09;;;;;;;12.68;8.15;;;;;;;8.60;100.00;101535.47;5017547;28;20048;-73
2023/01/07 07:58:35;;;;;;;16.48;9.10;;;;;;;8.66;100.00;101540.25;5011899;28;20139;-74
2023/01/07 08:01:00;;;;;;;15.95;7.45;;;;;;;8.73;100.00;101538.06;5013179;28;20029;-73
2023/01/07 08:03:26;;;;;;;14.27;7.85;;;;;;;8.76;100.00;101533.47;5012583;28;20042;-73
2023/01/07 08:05:51;;;;;;;12.55;7.90;;;;;;;8.78;100.00;101536.78;5011992;28;20446;-74
2023/01/07 08:08:16;;;;;;;16.70;9.50;;;;;;;8.79;100.00;101533.25;5018387;28;20103;-73
2023/01/07 08:10:42;;;;;;;18.08;8.77;;;;;;;8.79;100.00;101537.63;5011634;28;20022;-74
2023/01/07 08:13:08;;;;;;;15.50;8.65;;;;;;;8.79;100.00;101530.66;5016321;28;20029;-75
2023/01/07 08:15:34;;;;;;;18.98;7.97;;;;;;;8.80;100.00;101537.53;5009523;28;20554;-73
2023/01/07 08:18:03;;;;;;;18.40;8.50;;;;;;;8.83;100.00;101539.06;5019473;28;20118;-74
2023/01/07 08:20:29;;;;;;;13.05;8.02;;;;;;;8.83;100.00;101537.31;5014023;28;20028;-73
2023/01/07 08:23:00;;;;;;;15.25;9.07;;;;;;;8.87;100.00;101533.56;5012303;28;20045;-75
2023/01/07 08:25:26;;;;;;;13.00;8.35;;;;;;;8.90;100.00;101535.94;5010751;28;20034;-73
2023/01/07 08:27:54;;;;;;;16.48;8.73;;;;;;;8.93;100.00;101534.91;5020521;28;20081;-74
2023/01/07 08:30:20;;;;;;;14.40;8.77;;;;;;;8.95;100.00;101539.06;5011155;28;20042;-75
2023/01/07 08:32:46;;;;;;;18.13;10.20;;;;;;;8.97;100.00;101534.59;5018179;28;20789;-75
2023/01/07 08:35:12;;;;;;;26.35;10.45;;;;;;;9.01;100.00;101534.34;5017436;28;20084;-75
2023/01/07 08:37:37;;;;;;;16.45;10.35;;;;;;;8.98;100.00;101527.59;5008891;28;20030;-75
2023/01/07 08:40:04;;;;;;;18.48;9.75;;;;;;;8.93;100.00;101535.72;5011596;28;20040;-75
2023/01/07 08:42:30;;;;;;;20.20;9.80;;;;;;;8.91;100.00;101535.00;5006963;28;20046;-75
2023/01/07 08:44:55;;;;;;;18.27;9.50;;;;;;;8.90;100.00;101535.13;5008961;28;20120;-75
2023/01/07 08:47:21;;;;;;;18.17;10.00;;;;;;;8.98;100.00;101531.00;5016650;28;20034;-75
2023/01/07 08:49:46;;;;;;;13.27;8.80;;;;;;;9.08;100.00;101543.38;5008232;28;20042;-75
2023/01/07 08:52:11;;;;;;;13.95;8.68;;;;;;;9.15;100.00;101535.03;5013698;28;20037;-74
2023/01/07 08:54:37;;;;;;;16.80;8.85;;;;;;;9.11;100.00;101537.94;5015343;28;25441;-74
2023/01/07 08:57:03;;;;;;;19.15;9.57;;;;;;;9.04;100.00;101536.72;5017775;28;20037;-76
2023/01/07 08:59:28;;;;;;;18.10;9.07;;;;;;;9.06;100.00;101534.84;5005262;28;20164;-75
2023/01/07 09:01:53;;;;;;;19.88;10.73;;;;;;;9.12;100.00;101531.81;5013456;28;20112;-75
2023/01/07 09:04:19;;;;;;;16.25;10.30;;;;;;;9.17;100.00;101530.56;5012825;28;20039;-75
2023/01/07 09:06:44;;;;;;;15.98;9.10;;;;;;;9.19;100.00;101540.84;5005792;28;20161;-75
2023/01/07 09:09:10;;;;;;;13.60;8.68;;;;;;;9.17;100.00;101533.16;5007696;28;20044;-75
2023/01/07 09:11:36;;;;;;;19.23;9.88;;;;;;;9.27;100.00;101534.16;5003362;28;20048;-76
2023/01/07 09:14:02;;;;;;;17.25;10.30;;;;;;;9.33;100.00;101543.28;5007159;28;20392;-75
2023/01/07 09:16:27;;;;;;;20.27;11.57;;;;;;;9.37;100.00;101544.72;5006131;28;20037;-76
2023/01/07 09:18:53;;;;;;;23.95;12.32;;;;;;;9.39;100.00;101537.66;5005888;28;20525;-76
2023/01/07 09:21:18;;;;;;;21.27;12.45;;;;;;;9.47;100.00;101543.09;5013563;28;20517;-76
2023/01/07 09:23:44;;;;;;;25.92;12.70;;;;;;;9.57;100.00;101546.69;5011075;28;20022;-77
2023/01/07 09:26:09;;;;;;;20.65;13.00;;;;;;;9.64;100.00;101547.09;5013657;28;20035;-76
2023/01/07 09:28:35;;;;;;;22.05;13.10;;;;;;;9.74;100.00;101548.06;5017575;28;20151;-75
2023/01/07 09:31:01;;;;;;;22.70;14.27;;;;;;;9.82;100.00;101540.53;5019417;28;20041;-75
2023/01/07 09:33:27;;;;;;;22.92;13.68;;;;;;;9.88;100.00;101545.28;5010015;28;20120;-75
2023/01/07 09:35:53;;;;;;;23.83;13.57;;;;;;;9.94;100.00;101541.38;5009072;28;20105;-76
2023/01/07 09:38:18;;;;;;;22.30;12.73;;;;;;;9.99;100.00;101536.66;5011854;28;20037;-76
2023/01/07 09:40:44;;;;;;;21.98;13.40;;;;;;;9.95;100.00;101536.06;5009838;28;20519;-76
2023/01/07 09:43:15;;;;;;;22.45;13.80;;;;;;;9.87;100.00;101532.38;5008903;28;20061;-76
2023/01/07 09:45:46;;;;;;;27.25;14.30;;;;;;;9.83;100.00;101541.38;5007520;28;20219;-75
2023/01/07 09:48:36;;;;;;;25.38;15.43;;;;;;;9.86;100.00;101546.34;5007813;28;20444;-75
2023/01/07 09:51:12;;;;;;;22.85;15.38;;;;;;;9.91;100.00;101539.03;5007499;28;20045;-76
2023/01/07 09:53:42;;;;;;;27.75;16.25;;;;;;;9.90;100.00;101542.56;5043338;28;20041;-74
2023/01/07 09:56:32;;;;;;;22.30;14.77;;;;;;;9.94;100.00;101543.97;5006880;28;20491;-74
2023/01/07 09:59:01;;;;;;;27.05;16.95;;;;;;;10.07;100.00;101530.88;5009968;28;20037;-73
2023/01/07 10:01:56;;;;;;;32.75;19.02;;;;;;;10.14;100.00;101530.31;5012697;28;20045;-74
2023/01/07 10:04:33;;;;;;;26.85;18.33;;;;;;;10.18;100.00;101536.94;5009337;28;20038;-74
2023/01/07 10:07:06;;;;;;;30.00;20.60;;;;;;;10.20;100.00;101535.09;5009341;28;20043;-74
2023/01/07 10:09:50;;;;;;;32.00;19.75;;;;;;;10.25;100.00;101522.56;5007078;28;20041;-74
2023/01/07 10:12:27;;;;;;;32.88;20.20;;;;;;;10.28;100.00;101519.72;5007213;28;20069;-74
2023/01/07 10:15:01;;;;;;;31.67;19.80;;;;;;;10.28;100.00;101517.09;5010898;28;20021;-74
2023/01/07 10:17:30;;;;;;;30.88;19.88;;;;;;;10.33;100.00;101513.31;5003292;28;20160;-74
2023/01/07 10:20:08;;;;;;;30.42;19.88;;;;;;;10.38;100.00;101506.00;5010688;28;20030;-74
2023/01/07 10:22:38;;;;;;;34.58;20.30;;;;;;;10.40;100.00;101499.69;5012483;28;20033;-75
2023/01/07 10:25:13;;;;;;;31.73;19.42;;;;;;;10.36;100.00;101494.84;5008234;28;20134;-76
2023/01/07 10:27:43;;;;;;;31.17;19.75;;;;;;;10.28;100.00;101492.84;5005634;28;20125;-76
2023/01/07 10:30:20;;;;;;;34.42;19.60;;;;;;;10.09;100.00;101498.56;5022905;28;20133;-75
2023/01/07 10:32:48;;;;;;;30.77;20.52;;;;;;;10.06;100.00;101485.78;5007449;28;20042;-75
2023/01/07 10:35:19;;;;;;;32.33;20.73;;;;;;;10.16;100.00;101485.94;5008029;28;20037;-75
2023/01/07 10:37:45;;;;;;;38.15;21.73;;;;;;;10.15;100.00;101485.09;5008221;28;20038;-76
2023/01/07 10:40:26;;;;;;;32.10;19.33;;;;;;;10.07;100.00;101474.44;5009075;28;20041;-76
2023/01/07 10:43:03;;;;;;;33.15;20.23;;;;;;;10.06;100.00;101480.59;5007322;28;20033;-75
2023/01/07 10:45:45;;;;;;;29.50;18.48;;;;;;;9.96;100.00;101479.63;5005319;28;20076;-75
2023/01/07 10:48:29;;;;;;;30.52;19.02;;;;;;;9.99;100.00;101468.97;5011843;28;20455;-74
2023/01/07 10:50:57;;;;;;;30.30;17.55;;;;;;;10.03;100.00;101464.34;5006952;28;20048;-73
2023/01/07 10:53:42;;;;;;;32.63;19.95;;;;;;;9.99;100.00;101467.19;5006355;28;20370;-73
2023/01/07 10:56:19;;;;;;;30.27;18.67;;;;;;;9.98;100.00;101449.91;5005715;28;20439;-74
2023/01/07 10:58:47;;;;;;;30.55;17.35;;;;;;;10.05;100.00;101452.88;5017265;28;20291;-74
2023/01/07 11:01:28;;;;;;;32.92;19.65;;;;;;;10.10;100.00;101450.75;5006112;28;20034;-73
2023/01/07 11:03:56;;;;;;;30.20;20.02;;;;;;;10.19;100.00;101450.09;4998867;28;20087;-73
2023/01/07 11:06:45;;;;;;;35.05;18.77;;;;;;;10.26;100.00;101448.69;5008773;28;20038;-73
2023/01/07 11:09:18;;;;;;;30.23;18.92;;;;;;;10.34;100.00;101442.88;5007503;28;20045;-73
2023/01/07 11:11:45;;;;;;;28.73;19.05;;;;;;;10.38;100.00;101440.88;5008528;28;20070;-73
2023/01/07 11:14:22;;;;;;;31.50;20.20;;;;;;;10.37;100.00;101447.84;5010421;28;20050;-74
2023/01/07 11:17:12;;;;;;;30.73;19.77;;;;;;;10.23;100.00;101438.50;5010983;28;20397;-74
2023/01/07 11:19:48;;;;;;;36.88;22.23;;;;;;;10.14;100.00;101439.16;5009753;28;20041;-73
2023/01/07 11:22:25;;;;;;;44.33;28.35;;;;;;;10.15;100.00;101433.00;5007205;28;20103;-73
2023/01/07 11:24:55;;;;;;;45.08;29.15;;;;;;;10.16;100.00;101424.25;5009323;28;20556;-73